createdAt,value
2019-05-19T00:01:03.524Z,99.90
2019-05-19T00:03:32.105Z,99.90
2019-05-19T00:06:00.668Z,99.90
2019-05-19T00:08:29.253Z,99.90
2019-05-19T00:10:57.812Z,99.90
2019-05-19T00:13:26.581Z,99.90
2019-05-19T00:15:55.152Z,99.90
2019-05-19T00:18:23.736Z,99.90
2019-05-19T00:20:52.328Z,99.90
2019-05-19T00:23:20.904Z,99.90
2019-05-19T00:25:49.521Z,99.90
2019-05-19T00:28:18.104Z,99.90
2019-05-19T00:30:46.658Z,99.90
2019-05-19T00:33:15.247Z,99.90
2019-05-19T00:35:43.807Z,99.90
2019-05-19T00:38:12.392Z,99.90
2019-05-19T00:40:40.951Z,99.90
2019-05-19T00:43:09.601Z,99.90
2019-05-19T00:45:38.158Z,99.90
2019-05-19T00:48:06.873Z,99.90
2019-05-19T00:50:35.534Z,99.90
2019-05-19T00:53:04.121Z,99.90
2019-05-19T00:55:32.844Z,99.90
2019-05-19T00:58:03.569Z,99.90
2019-05-19T01:00:32.256Z,99.90
2019-05-19T01:03:00.959Z,99.90
2019-05-19T01:05:29.587Z,99.90
2019-05-19T01:07:58.252Z,99.90
2019-05-19T01:10:26.896Z,99.90
2019-05-19T01:12:55.483Z,99.90
2019-05-19T01:15:24.180Z,99.90
2019-05-19T01:17:52.840Z,99.90
2019-05-19T01:20:21.540Z,99.90
2019-05-19T01:22:50.122Z,99.90
2019-05-19T01:25:18.815Z,99.90
2019-05-19T01:27:47.405Z,99.90
2019-05-19T01:30:17.664Z,99.90
2019-05-19T01:32:46.246Z,99.90
2019-05-19T01:35:15.035Z,99.90
2019-05-19T01:37:43.617Z,99.90
2019-05-19T01:40:13.818Z,99.90
2019-05-19T01:42:42.404Z,99.90
2019-05-19T01:45:11.112Z,99.90
2019-05-19T01:47:39.709Z,99.90
2019-05-19T01:50:17.442Z,99.90
2019-05-19T01:52:39.331Z,99.90
2019-05-19T01:55:08.336Z,99.90
2019-05-19T01:57:36.895Z,99.90
2019-05-19T02:00:08.217Z,99.90
2019-05-19T02:02:36.779Z,99.90
2019-05-19T02:05:06.603Z,99.90
2019-05-19T02:07:35.336Z,99.90
2019-05-19T02:10:09.300Z,99.90
2019-05-19T02:12:37.964Z,99.90
2019-05-19T02:15:07.087Z,99.90
2019-05-19T02:17:35.790Z,99.90
2019-05-19T02:20:06.803Z,99.90
2019-05-19T02:22:35.365Z,99.90
2019-05-19T02:25:05.111Z,99.90
2019-05-19T02:27:33.670Z,99.90
2019-05-19T02:30:02.674Z,99.90
2019-05-19T02:32:31.704Z,99.90
2019-05-19T02:35:00.304Z,99.90
2019-05-19T02:37:28.843Z,99.90
2019-05-19T02:39:57.559Z,99.90
2019-05-19T02:42:28.244Z,99.90
2019-05-19T02:44:58.624Z,99.90
2019-05-19T02:47:28.384Z,99.90
2019-05-19T02:49:58.298Z,99.90
2019-05-19T02:52:28.092Z,99.90
2019-05-19T02:54:58.574Z,99.90
2019-05-19T02:57:27.268Z,99.90
2019-05-19T02:59:56.426Z,99.90
2019-05-19T03:02:24.985Z,99.90
2019-05-19T03:04:53.621Z,99.90
2019-05-19T03:07:22.173Z,99.90
2019-05-19T03:09:50.748Z,99.90
2019-05-19T03:12:19.311Z,99.90
2019-05-19T03:14:47.903Z,99.90
2019-05-19T03:17:16.513Z,99.90
2019-05-19T03:19:45.090Z,99.90
2019-05-19T03:22:13.647Z,99.90
2019-05-19T03:24:42.241Z,99.90
2019-05-19T03:27:10.792Z,99.90
2019-05-19T03:29:41.047Z,99.90
2019-05-19T03:32:13.943Z,99.90
2019-05-19T03:34:42.520Z,99.90
2019-05-19T03:37:11.073Z,99.90
2019-05-19T03:39:39.650Z,99.90
2019-05-19T03:42:10.328Z,99.90
2019-05-19T03:44:38.447Z,99.90
2019-05-19T03:47:06.991Z,99.90
2019-05-19T03:49:35.579Z,99.90
2019-05-19T03:52:04.195Z,99.90
2019-05-19T03:54:32.780Z,99.90
2019-05-19T03:57:01.345Z,99.90
2019-05-19T03:59:29.920Z,99.90
2019-05-19T04:01:58.468Z,99.90
2019-05-19T04:04:27.043Z,99.90
2019-05-19T04:06:55.600Z,99.90
2019-05-19T04:09:24.183Z,99.90
2019-05-19T04:11:52.730Z,99.90
2019-05-19T04:14:21.417Z,99.90
2019-05-19T04:16:51.508Z,99.90
2019-05-19T04:19:20.079Z,99.90
2019-05-19T04:21:49.684Z,99.90
2019-05-19T04:24:18.488Z,99.90
2019-05-19T04:26:47.044Z,99.90
2019-05-19T04:29:15.615Z,99.90
2019-05-19T04:31:44.167Z,99.90
2019-05-19T04:34:12.744Z,99.90
2019-05-19T04:36:41.301Z,99.90
2019-05-19T04:39:09.899Z,99.90
2019-05-19T04:41:40.311Z,99.90
2019-05-19T04:44:08.633Z,99.90
2019-05-19T04:46:37.353Z,99.90
2019-05-19T04:49:05.895Z,99.90
2019-05-19T04:51:34.581Z,99.90
2019-05-19T04:54:03.100Z,99.90
2019-05-19T04:56:31.740Z,99.90
2019-05-19T04:59:00.389Z,99.90
2019-05-19T05:01:28.968Z,99.90
2019-05-19T05:03:57.518Z,99.90
2019-05-19T05:06:26.235Z,99.90
2019-05-19T05:08:54.796Z,99.90
2019-05-19T05:11:23.452Z,99.90
2019-05-19T05:13:52.036Z,99.90
2019-05-19T05:16:20.620Z,99.90
2019-05-19T05:18:49.243Z,99.90
2019-05-19T05:21:17.897Z,99.90
2019-05-19T05:23:46.467Z,99.90
2019-05-19T05:26:15.031Z,99.90
2019-05-19T05:28:43.581Z,99.90
2019-05-19T05:31:15.430Z,99.90
2019-05-19T05:33:42.444Z,99.90
2019-05-19T05:36:11.024Z,99.90
2019-05-19T05:38:39.652Z,99.90
2019-05-19T05:41:08.233Z,99.90
2019-05-19T05:43:36.796Z,99.90
2019-05-19T05:46:05.377Z,99.90
2019-05-19T05:48:33.952Z,99.90
2019-05-19T05:51:02.552Z,99.90
2019-05-19T05:53:31.114Z,99.90
2019-05-19T05:55:59.696Z,99.90
2019-05-19T05:58:28.253Z,99.90
2019-05-19T06:00:56.833Z,99.90
2019-05-19T06:03:25.409Z,99.90
2019-05-19T06:05:53.981Z,99.90
2019-05-19T06:08:22.547Z,99.90
2019-05-19T06:10:51.132Z,99.90
2019-05-19T06:13:19.719Z,99.90
2019-05-19T06:15:48.574Z,99.90
2019-05-19T06:18:17.137Z,99.90
2019-05-19T06:20:45.707Z,99.90
2019-05-19T06:23:14.260Z,99.90
2019-05-19T06:25:42.841Z,99.90
2019-05-19T06:28:11.541Z,99.90
2019-05-19T06:30:40.112Z,99.90
2019-05-19T06:33:08.682Z,99.90
2019-05-19T06:35:37.326Z,99.90
2019-05-19T06:38:05.890Z,99.90
2019-05-19T06:40:34.621Z,99.90
2019-05-19T06:43:03.167Z,99.90
2019-05-19T06:45:31.831Z,99.90
2019-05-19T06:48:00.367Z,99.90
2019-05-19T06:50:28.940Z,99.90
2019-05-19T06:53:12.716Z,99.90
2019-05-19T06:55:27.997Z,99.90
2019-05-19T06:57:56.547Z,99.90
2019-05-19T07:00:25.288Z,99.90
2019-05-19T07:02:53.854Z,99.90
2019-05-19T07:05:22.595Z,99.90
2019-05-19T07:07:51.240Z,99.90
2019-05-19T07:10:19.967Z,99.90
2019-05-19T07:12:48.539Z,99.90
2019-05-19T07:15:17.432Z,99.70
2019-05-19T07:17:46.068Z,94.10
2019-05-19T07:20:14.705Z,84.30
2019-05-19T07:22:43.402Z,79.30
2019-05-19T07:25:12.152Z,83.60
2019-05-19T07:27:40.728Z,87.60
2019-05-19T07:30:09.831Z,87.90
2019-05-19T07:32:38.482Z,83.50
2019-05-19T07:35:07.296Z,80.60
2019-05-19T07:37:35.885Z,76.40
2019-05-19T07:40:05.957Z,72.10
2019-05-19T07:42:34.552Z,66.70
2019-05-19T07:45:03.239Z,65.90
2019-05-19T07:47:31.822Z,64.80
2019-05-19T07:50:00.375Z,64.10
2019-05-19T07:52:28.962Z,63.60
2019-05-19T07:54:57.511Z,62.30
2019-05-19T07:57:26.092Z,62.00
2019-05-19T07:59:54.651Z,62.70
2019-05-19T08:02:23.261Z,63.00
2019-05-19T08:04:51.805Z,59.50
2019-05-19T08:07:20.445Z,60.10
2019-05-19T08:09:49.039Z,59.00
2019-05-19T08:12:17.614Z,60.10
2019-05-19T08:14:46.174Z,61.20
2019-05-19T08:17:14.752Z,61.90
2019-05-19T08:19:43.372Z,61.60
2019-05-19T08:22:11.944Z,59.90
2019-05-19T08:24:40.513Z,59.60
2019-05-19T08:27:09.254Z,57.90
2019-05-19T08:29:37.809Z,56.00
2019-05-19T08:32:06.459Z,54.40
2019-05-19T08:34:35.021Z,54.00
2019-05-19T08:37:03.587Z,52.90
2019-05-19T08:39:32.219Z,52.50
2019-05-19T08:42:00.799Z,53.60
2019-05-19T08:44:29.361Z,51.70
2019-05-19T08:46:57.935Z,50.80
2019-05-19T08:49:26.533Z,49.30
2019-05-19T08:51:55.097Z,51.50
2019-05-19T08:54:23.650Z,49.10
2019-05-19T08:56:52.308Z,47.50
2019-05-19T08:59:20.879Z,48.90
2019-05-19T09:01:49.473Z,47.90
2019-05-19T09:04:18.115Z,46.80
2019-05-19T09:06:46.739Z,47.20
2019-05-19T09:09:15.375Z,47.40
2019-05-19T09:11:43.944Z,50.50
2019-05-19T09:14:12.489Z,49.40
2019-05-19T09:16:41.217Z,49.30
2019-05-19T09:19:09.764Z,48.80
2019-05-19T09:21:38.352Z,50.10
2019-05-19T09:24:06.932Z,50.50
2019-05-19T09:26:35.535Z,48.20
2019-05-19T09:29:04.221Z,48.80
2019-05-19T09:31:32.795Z,51.10
2019-05-19T09:34:01.344Z,47.60
2019-05-19T09:36:29.923Z,48.10
2019-05-19T09:38:58.495Z,48.60
2019-05-19T09:41:27.061Z,49.10
2019-05-19T09:43:55.617Z,50.60
2019-05-19T09:46:24.193Z,48.40
2019-05-19T09:49:11.036Z,49.60
2019-05-19T09:51:39.675Z,49.10
2019-05-19T09:54:08.243Z,48.10
2019-05-19T09:56:36.809Z,49.10
2019-05-19T09:59:05.439Z,48.80
2019-05-19T10:01:34.019Z,48.80
2019-05-19T10:04:02.641Z,48.40
2019-05-19T10:06:31.213Z,48.50
2019-05-19T10:09:00.105Z,48.20
2019-05-19T10:11:31.778Z,47.30
2019-05-19T10:14:00.320Z,47.20
2019-05-19T10:16:28.900Z,47.60
2019-05-19T10:18:57.464Z,47.50
2019-05-19T10:21:26.161Z,49.40
2019-05-19T10:23:54.821Z,47.40
2019-05-19T10:26:23.384Z,49.00
2019-05-19T10:28:51.959Z,48.10
2019-05-19T10:31:20.523Z,47.60
2019-05-19T10:33:49.149Z,48.20
2019-05-19T10:36:17.736Z,47.70
2019-05-19T10:38:46.325Z,46.30
2019-05-19T10:41:14.927Z,47.70
2019-05-19T10:43:43.522Z,46.90
2019-05-19T10:46:12.062Z,46.40
2019-05-19T10:48:40.647Z,47.00
2019-05-19T10:51:09.207Z,45.40
2019-05-19T10:53:37.784Z,45.60
2019-05-19T10:56:06.408Z,47.20
2019-05-19T10:58:35.006Z,46.50
2019-05-19T11:01:03.619Z,47.70
2019-05-19T11:03:32.200Z,47.50
2019-05-19T11:06:00.760Z,47.90
2019-05-19T11:08:29.400Z,48.60
2019-05-19T11:10:57.952Z,49.30
2019-05-19T11:13:26.597Z,46.60
2019-05-19T11:15:55.148Z,46.20
2019-05-19T11:18:23.728Z,44.80
2019-05-19T11:20:52.358Z,45.10
2019-05-19T11:23:21.812Z,43.20
2019-05-19T11:25:51.683Z,45.70
2019-05-19T11:28:20.451Z,47.00
2019-05-19T11:30:49.008Z,45.60
2019-05-19T11:33:17.595Z,44.60
2019-05-19T11:35:46.179Z,42.70
2019-05-19T11:38:14.751Z,40.10
2019-05-19T11:40:43.325Z,40.20
2019-05-19T11:43:11.899Z,42.00
2019-05-19T11:45:40.444Z,41.10
2019-05-19T11:48:09.081Z,36.90
2019-05-19T11:50:41.883Z,37.60
2019-05-19T11:53:07.864Z,35.70
2019-05-19T11:55:36.418Z,36.00
2019-05-19T11:58:05.128Z,38.50
2019-05-19T12:00:33.753Z,43.20
2019-05-19T12:03:02.328Z,40.90
2019-05-19T12:05:30.952Z,42.00
2019-05-19T12:07:59.567Z,43.00
2019-05-19T12:10:28.134Z,44.40
2019-05-19T12:12:56.688Z,43.60
2019-05-19T12:15:25.409Z,43.80
2019-05-19T12:17:53.956Z,44.30
2019-05-19T12:20:22.553Z,46.10
2019-05-19T12:22:51.107Z,48.00
2019-05-19T12:25:19.824Z,46.10
2019-05-19T12:27:48.451Z,44.70
2019-05-19T12:30:20.709Z,43.70
2019-05-19T12:32:49.421Z,43.70
2019-05-19T12:35:18.640Z,41.70
2019-05-19T12:37:47.191Z,40.80
2019-05-19T12:40:16.307Z,40.10
2019-05-19T12:42:44.857Z,39.90
2019-05-19T12:45:15.239Z,38.90
2019-05-19T12:47:43.856Z,39.40
2019-05-19T12:50:13.773Z,40.30
2019-05-19T12:52:42.352Z,39.60
2019-05-19T12:55:11.363Z,39.20
2019-05-19T12:57:39.981Z,40.60
2019-05-19T13:00:08.791Z,37.20
2019-05-19T13:02:38.184Z,35.70
2019-05-19T13:05:07.967Z,37.80
2019-05-19T13:07:36.542Z,34.80
2019-05-19T13:10:06.682Z,33.50
2019-05-19T13:12:35.259Z,35.20
2019-05-19T13:15:06.385Z,36.00
2019-05-19T13:17:35.070Z,37.60
2019-05-19T13:20:04.268Z,38.30
2019-05-19T13:22:32.829Z,38.90
2019-05-19T13:25:01.411Z,38.20
2019-05-19T13:27:29.959Z,37.10
2019-05-19T13:29:58.544Z,35.20
2019-05-19T13:32:27.103Z,38.70
2019-05-19T13:34:55.743Z,38.20
2019-05-19T13:37:24.324Z,39.20
2019-05-19T13:39:52.905Z,39.40
2019-05-19T13:42:21.487Z,38.90
2019-05-19T13:44:50.043Z,39.40
2019-05-19T13:47:18.610Z,40.00
2019-05-19T13:49:47.171Z,40.70
2019-05-19T13:52:15.823Z,39.60
2019-05-19T13:54:44.401Z,40.10
2019-05-19T13:57:13.078Z,40.00
2019-05-19T13:59:41.645Z,40.00
2019-05-19T14:02:10.267Z,40.20
2019-05-19T14:04:38.855Z,39.90
2019-05-19T14:07:07.497Z,40.60
2019-05-19T14:09:36.042Z,41.30
2019-05-19T14:12:04.762Z,40.90
2019-05-19T14:14:33.316Z,40.50
2019-05-19T14:17:01.903Z,39.70
2019-05-19T14:19:30.481Z,40.30
2019-05-19T14:21:59.050Z,39.80
2019-05-19T14:24:27.609Z,39.80
2019-05-19T14:26:56.171Z,40.30
2019-05-19T14:29:26.340Z,40.10
2019-05-19T14:31:54.940Z,42.30
2019-05-19T14:34:23.504Z,40.40
2019-05-19T14:36:52.117Z,39.60
2019-05-19T14:39:20.634Z,40.30
2019-05-19T14:41:50.843Z,39.80
2019-05-19T14:44:19.393Z,39.20
2019-05-19T14:46:47.977Z,38.20
2019-05-19T14:49:17.025Z,39.30
2019-05-19T14:51:45.605Z,39.80
2019-05-19T14:54:14.162Z,39.30
2019-05-19T14:56:42.725Z,40.10
2019-05-19T14:59:11.279Z,39.40
2019-05-19T15:01:39.867Z,39.70
2019-05-19T15:04:08.413Z,39.40
2019-05-19T15:06:36.992Z,40.40
2019-05-19T15:09:06.491Z,39.10
2019-05-19T15:11:35.136Z,39.40
2019-05-19T15:14:03.760Z,39.10
2019-05-19T15:16:32.340Z,39.60
2019-05-19T15:19:00.892Z,39.50
2019-05-19T15:21:31.880Z,39.60
2019-05-19T15:23:59.897Z,40.30
2019-05-19T15:26:28.483Z,40.60
2019-05-19T15:28:57.057Z,40.10
2019-05-19T15:31:25.639Z,40.50
2019-05-19T15:33:54.237Z,41.20
2019-05-19T15:36:22.801Z,42.40
2019-05-19T15:38:51.352Z,42.10
2019-05-19T15:41:19.942Z,41.60
2019-05-19T15:43:48.586Z,43.00
2019-05-19T15:46:18.182Z,43.40
2019-05-19T15:48:46.973Z,42.50
2019-05-19T15:51:27.563Z,42.40
2019-05-19T15:53:46.412Z,42.80
2019-05-19T15:56:15.151Z,43.00
2019-05-19T15:58:43.680Z,43.20
2019-05-19T16:01:12.328Z,42.40
2019-05-19T16:03:40.952Z,43.20
2019-05-19T16:06:09.531Z,43.40
2019-05-19T16:08:38.089Z,45.10
2019-05-19T16:11:06.671Z,45.00
2019-05-19T16:13:35.292Z,45.10
2019-05-19T16:16:03.943Z,45.60
2019-05-19T16:18:32.547Z,45.70
2019-05-19T16:21:01.192Z,46.20
2019-05-19T16:23:29.743Z,47.10
2019-05-19T16:25:58.291Z,47.60
2019-05-19T16:28:30.789Z,48.60
2019-05-19T16:30:57.208Z,48.90
2019-05-19T16:33:25.867Z,48.80
2019-05-19T16:35:54.419Z,48.40
2019-05-19T16:38:23.121Z,49.10
2019-05-19T16:40:51.663Z,49.90
2019-05-19T16:43:20.227Z,50.20
2019-05-19T16:45:48.849Z,50.70
2019-05-19T16:48:17.539Z,51.80
2019-05-19T16:50:46.133Z,52.80
2019-05-19T16:53:14.927Z,52.80
2019-05-19T16:55:43.637Z,54.70
2019-05-19T16:58:21.233Z,54.90
2019-05-19T17:00:42.913Z,55.50
2019-05-19T17:03:11.513Z,56.10
2019-05-19T17:05:40.054Z,55.20
2019-05-19T17:08:08.708Z,55.10
2019-05-19T17:10:37.524Z,55.70
2019-05-19T17:13:06.125Z,55.80
2019-05-19T17:15:34.740Z,54.20
2019-05-19T17:18:03.396Z,54.80
2019-05-19T17:20:31.981Z,54.30
2019-05-19T17:23:00.737Z,55.20
2019-05-19T17:25:29.288Z,55.50
2019-05-19T17:27:59.693Z,55.90
2019-05-19T17:30:28.237Z,57.00
2019-05-19T17:32:56.826Z,57.20
2019-05-19T17:35:25.449Z,57.70
2019-05-19T17:37:54.159Z,58.50
2019-05-19T17:40:22.848Z,59.10
2019-05-19T17:42:51.476Z,59.70
2019-05-19T17:45:21.178Z,61.40
2019-05-19T17:47:52.764Z,62.60
2019-05-19T17:50:23.213Z,64.00
2019-05-19T17:52:51.870Z,66.10
2019-05-19T17:55:20.577Z,67.10
2019-05-19T17:57:49.691Z,66.10
2019-05-19T18:00:21.388Z,66.20
2019-05-19T18:02:50.039Z,66.40
2019-05-19T18:05:18.600Z,67.30
2019-05-19T18:07:47.321Z,68.70
2019-05-19T18:10:16.029Z,68.20
2019-05-19T18:12:44.655Z,69.40
2019-05-19T18:15:13.380Z,70.80
2019-05-19T18:17:41.952Z,72.30
2019-05-19T18:20:22.925Z,75.00
2019-05-19T18:22:40.944Z,75.90
2019-05-19T18:25:09.580Z,79.20
2019-05-19T18:27:38.226Z,83.50
2019-05-19T18:30:07.128Z,89.70
2019-05-19T18:32:35.797Z,95.30
2019-05-19T18:35:06.307Z,99.80
2019-05-19T18:37:34.978Z,99.90
2019-05-19T18:40:04.792Z,99.90
2019-05-19T18:42:33.330Z,99.90
2019-05-19T18:45:02.057Z,99.90
2019-05-19T18:47:30.749Z,99.90
2019-05-19T18:49:59.359Z,99.90
2019-05-19T18:52:27.990Z,99.90
2019-05-19T18:54:56.632Z,99.90
2019-05-19T18:57:25.260Z,99.90
2019-05-19T18:59:53.844Z,99.90
2019-05-19T19:02:22.545Z,99.90
2019-05-19T19:04:51.146Z,99.90
2019-05-19T19:07:21.424Z,99.90
2019-05-19T19:09:50.169Z,99.90
2019-05-19T19:12:18.808Z,99.90
2019-05-19T19:14:47.382Z,99.90
2019-05-19T19:17:15.947Z,99.90
2019-05-19T19:19:44.536Z,99.90
2019-05-19T19:22:13.252Z,99.90
2019-05-19T19:24:41.985Z,99.90
2019-05-19T19:27:10.592Z,99.90
2019-05-19T19:29:39.294Z,99.90
2019-05-19T19:32:07.916Z,99.90
2019-05-19T19:34:36.504Z,99.90
2019-05-19T19:37:05.204Z,99.90
2019-05-19T19:39:33.715Z,99.90
2019-05-19T19:42:02.271Z,99.90
2019-05-19T19:44:30.924Z,99.90
2019-05-19T19:46:59.588Z,99.90
2019-05-19T19:49:28.163Z,99.90
2019-05-19T19:51:56.831Z,99.90
2019-05-19T19:54:25.437Z,99.90
2019-05-19T19:56:54.143Z,99.90
2019-05-19T19:59:23.000Z,99.90
2019-05-19T20:01:51.670Z,99.90
2019-05-19T20:04:20.323Z,99.90
2019-05-19T20:06:48.979Z,99.90
2019-05-19T20:09:17.511Z,99.90
2019-05-19T20:11:46.218Z,99.90
2019-05-19T20:14:14.929Z,99.90
2019-05-19T20:16:43.548Z,99.90
2019-05-19T20:19:12.151Z,99.90
2019-05-19T20:21:41.141Z,99.90
2019-05-19T20:24:09.701Z,99.90
2019-05-19T20:26:38.275Z,99.90
2019-05-19T20:29:06.972Z,99.90
2019-05-19T20:31:35.582Z,99.90
2019-05-19T20:34:05.304Z,99.90
2019-05-19T20:36:34.030Z,99.90
2019-05-19T20:39:02.959Z,99.90
2019-05-19T20:41:31.612Z,99.90
2019-05-19T20:44:00.548Z,99.90
2019-05-19T20:46:29.168Z,99.90
2019-05-19T20:48:57.800Z,99.90
2019-05-19T20:51:26.641Z,99.90
2019-05-19T20:53:55.190Z,99.90
2019-05-19T20:56:23.821Z,99.90
2019-05-19T20:58:52.448Z,99.90
2019-05-19T21:01:21.024Z,99.90
2019-05-19T21:03:49.639Z,99.90
2019-05-19T21:06:18.248Z,99.90
2019-05-19T21:08:47.010Z,99.90
2019-05-19T21:11:15.732Z,99.90
2019-05-19T21:13:44.359Z,99.90
2019-05-19T21:16:13.029Z,99.90
2019-05-19T21:18:41.683Z,99.90
2019-05-19T21:21:10.260Z,99.90
2019-05-19T21:23:38.816Z,99.90
2019-05-19T21:26:07.391Z,99.90
2019-05-19T21:28:35.943Z,99.90
2019-05-19T21:31:06.206Z,99.90
2019-05-19T21:33:34.724Z,99.90
2019-05-19T21:36:03.279Z,99.90
2019-05-19T21:38:31.855Z,99.90
2019-05-19T21:41:00.473Z,99.90
2019-05-19T21:43:29.052Z,99.90
2019-05-19T21:45:57.625Z,99.90
2019-05-19T21:48:35.264Z,99.90
2019-05-19T21:51:04.068Z,99.90
2019-05-19T21:53:33.638Z,99.90
2019-05-19T21:56:02.292Z,99.90
2019-05-19T21:58:30.863Z,99.90
2019-05-19T22:00:59.415Z,99.90
2019-05-19T22:03:28.081Z,99.90
2019-05-19T22:05:56.699Z,99.90
2019-05-19T22:08:25.415Z,99.90
2019-05-19T22:10:53.969Z,99.90
2019-05-19T22:13:22.560Z,99.90
2019-05-19T22:15:51.258Z,99.90
2019-05-19T22:18:19.923Z,99.90
2019-05-19T22:20:48.557Z,99.90
2019-05-19T22:23:17.128Z,99.90
2019-05-19T22:25:45.729Z,99.90
2019-05-19T22:28:14.298Z,99.90
2019-05-19T22:30:42.988Z,99.90
2019-05-19T22:33:11.666Z,99.90
2019-05-19T22:35:40.705Z,99.90
2019-05-19T22:38:09.787Z,99.90
2019-05-19T22:40:38.544Z,99.90
2019-05-19T22:43:07.128Z,99.90
2019-05-19T22:45:35.967Z,99.90
2019-05-19T22:48:04.594Z,99.90
2019-05-19T22:50:33.151Z,99.90
2019-05-19T22:53:01.821Z,99.90
2019-05-19T22:55:30.475Z,99.90
2019-05-19T22:57:59.028Z,99.90
2019-05-19T23:00:27.822Z,99.90
2019-05-19T23:02:56.434Z,99.90
2019-05-19T23:05:25.083Z,99.90
2019-05-19T23:07:53.651Z,99.90
2019-05-19T23:10:22.584Z,99.90
2019-05-19T23:12:51.335Z,99.90
2019-05-19T23:15:20.509Z,99.90
2019-05-19T23:17:49.181Z,99.90
2019-05-19T23:20:18.157Z,99.90
2019-05-19T23:22:46.830Z,99.90
2019-05-19T23:25:15.853Z,99.90
2019-05-19T23:27:44.571Z,99.90
2019-05-19T23:30:13.304Z,99.90
2019-05-19T23:32:41.861Z,99.90
2019-05-19T23:35:10.520Z,99.90
2019-05-19T23:37:39.163Z,99.90
2019-05-19T23:40:09.651Z,99.90
2019-05-19T23:42:38.606Z,99.90
2019-05-19T23:45:07.734Z,99.90
2019-05-19T23:47:36.416Z,99.90
2019-05-19T23:50:06.738Z,99.90
2019-05-19T23:52:35.772Z,99.90
2019-05-19T23:55:24.064Z,99.90
2019-05-19T23:57:52.691Z,99.90
